sensor_id;sensor_type;location;lat;lon;timestamp;P1;durP1;ratioP1;P2;durP2;ratioP2
9809;SDS011;4944;52.514;13.192;2023-12-14T00:00:51;7.43;;;6.67;;
9809;SDS011;4944;52.514;13.192;2023-12-14T00:03:18;9.23;;;6.93;;
9809;SDS011;4944;52.514;13.192;2023-12-14T00:05:46;7.90;;;6.77;;
9809;SDS011;4944;52.514;13.192;2023-12-14T00:08:13;10.10;;;6.80;;
9809;SDS011;4944;52.514;13.192;2023-12-14T00:10:40;8.00;;;7.17;;
9809;SDS011;4944;52.514;13.192;2023-12-14T00:13:07;7.53;;;6.77;;
9809;SDS011;4944;52.514;13.192;2023-12-14T00:15:36;8.20;;;7.40;;
9809;SDS011;4944;52.514;13.192;2023-12-14T00:18:03;7.20;;;6.50;;
9809;SDS011;4944;52.514;13.192;2023-12-14T00:20:31;7.97;;;7.07;;
9809;SDS011;4944;52.514;13.192;2023-12-14T00:22:59;7.20;;;6.50;;
9809;SDS011;4944;52.514;13.192;2023-12-14T00:25:26;7.80;;;6.93;;
9809;SDS011;4944;52.514;13.192;2023-12-14T00:27:53;8.13;;;7.00;;
9809;SDS011;4944;52.514;13.192;2023-12-14T00:30:20;7.27;;;6.57;;
9809;SDS011;4944;52.514;13.192;2023-12-14T00:32:47;8.10;;;7.23;;
9809;SDS011;4944;52.514;13.192;2023-12-14T00:35:14;7.67;;;6.90;;
9809;SDS011;4944;52.514;13.192;2023-12-14T00:37:40;7.90;;;7.10;;
9809;SDS011;4944;52.514;13.192;2023-12-14T00:40:09;7.80;;;7.10;;
9809;SDS011;4944;52.514;13.192;2023-12-14T00:42:37;7.17;;;6.47;;
9809;SDS011;4944;52.514;13.192;2023-12-14T00:45:04;7.13;;;6.43;;
9809;SDS011;4944;52.514;13.192;2023-12-14T00:47:31;7.90;;;7.00;;
9809;SDS011;4944;52.514;13.192;2023-12-14T00:49:58;7.13;;;6.43;;
9809;SDS011;4944;52.514;13.192;2023-12-14T00:52:25;7.83;;;6.50;;
9809;SDS011;4944;52.514;13.192;2023-12-14T00:54:52;7.57;;;6.83;;
9809;SDS011;4944;52.514;13.192;2023-12-14T00:57:20;8.57;;;7.40;;
9809;SDS011;4944;52.514;13.192;2023-12-14T00:59:47;8.73;;;7.30;;
9809;SDS011;4944;52.514;13.192;2023-12-14T01:02:14;7.33;;;6.60;;
9809;SDS011;4944;52.514;13.192;2023-12-14T01:04:41;7.90;;;7.00;;
9809;SDS011;4944;52.514;13.192;2023-12-14T01:07:08;8.00;;;7.13;;
9809;SDS011;4944;52.514;13.192;2023-12-14T01:09:35;7.80;;;7.10;;
9809;SDS011;4944;52.514;13.192;2023-12-14T01:12:02;8.03;;;7.33;;
9809;SDS011;4944;52.514;13.192;2023-12-14T01:14:31;8.00;;;7.20;;
9809;SDS011;4944;52.514;13.192;2023-12-14T01:16:58;7.77;;;6.97;;
9809;SDS011;4944;52.514;13.192;2023-12-14T01:19:25;7.30;;;6.57;;
9809;SDS011;4944;52.514;13.192;2023-12-14T01:21:52;8.20;;;7.20;;
9809;SDS011;4944;52.514;13.192;2023-12-14T01:24:20;7.90;;;6.80;;
9809;SDS011;4944;52.514;13.192;2023-12-14T01:26:47;9.07;;;6.87;;
9809;SDS011;4944;52.514;13.192;2023-12-14T01:29:13;7.97;;;7.10;;
9809;SDS011;4944;52.514;13.192;2023-12-14T01:31:42;7.07;;;6.47;;
9809;SDS011;4944;52.514;13.192;2023-12-14T01:34:09;8.40;;;6.93;;
9809;SDS011;4944;52.514;13.192;2023-12-14T01:36:37;9.20;;;7.37;;
9809;SDS011;4944;52.514;13.192;2023-12-14T01:39:04;7.13;;;6.50;;
9809;SDS011;4944;52.514;13.192;2023-12-14T01:41:31;7.07;;;6.37;;
9809;SDS011;4944;52.514;13.192;2023-12-14T01:43:58;6.77;;;5.60;;
9809;SDS011;4944;52.514;13.192;2023-12-14T01:46:25;6.07;;;5.57;;
9809;SDS011;4944;52.514;13.192;2023-12-14T01:48:53;6.47;;;5.70;;
9809;SDS011;4944;52.514;13.192;2023-12-14T01:51:20;6.77;;;5.27;;
9809;SDS011;4944;52.514;13.192;2023-12-14T01:53:47;5.87;;;5.37;;
9809;SDS011;4944;52.514;13.192;2023-12-14T01:56:14;6.00;;;5.40;;
9809;SDS011;4944;52.514;13.192;2023-12-14T01:58:41;5.33;;;4.80;;
9809;SDS011;4944;52.514;13.192;2023-12-14T02:01:10;5.90;;;5.40;;
9809;SDS011;4944;52.514;13.192;2023-12-14T02:03:44;5.83;;;5.33;;
9809;SDS011;4944;52.514;13.192;2023-12-14T02:06:12;6.00;;;5.40;;
9809;SDS011;4944;52.514;13.192;2023-12-14T02:08:39;5.47;;;4.97;;
9809;SDS011;4944;52.514;13.192;2023-12-14T02:11:06;5.60;;;5.10;;
9809;SDS011;4944;52.514;13.192;2023-12-14T02:13:33;5.87;;;5.37;;
9809;SDS011;4944;52.514;13.192;2023-12-14T02:16:00;6.23;;;5.63;;
9809;SDS011;4944;52.514;13.192;2023-12-14T02:18:27;5.57;;;5.07;;
9809;SDS011;4944;52.514;13.192;2023-12-14T02:20:54;6.40;;;5.80;;
9809;SDS011;4944;52.514;13.192;2023-12-14T02:23:22;7.50;;;6.80;;
9809;SDS011;4944;52.514;13.192;2023-12-14T02:25:49;7.40;;;6.53;;
9809;SDS011;4944;52.514;13.192;2023-12-14T02:28:16;6.40;;;5.90;;
9809;SDS011;4944;52.514;13.192;2023-12-14T02:30:43;8.07;;;6.07;;
9809;SDS011;4944;52.514;13.192;2023-12-14T02:33:10;9.43;;;6.63;;
9809;SDS011;4944;52.514;13.192;2023-12-14T02:35:37;7.40;;;6.50;;
9809;SDS011;4944;52.514;13.192;2023-12-14T02:38:04;6.93;;;6.33;;
9809;SDS011;4944;52.514;13.192;2023-12-14T02:40:32;7.10;;;6.40;;
9809;SDS011;4944;52.514;13.192;2023-12-14T02:42:59;7.43;;;6.60;;
9809;SDS011;4944;52.514;13.192;2023-12-14T02:45:26;7.07;;;6.37;;
9809;SDS011;4944;52.514;13.192;2023-12-14T02:47:52;7.27;;;6.47;;
9809;SDS011;4944;52.514;13.192;2023-12-14T02:50:19;7.00;;;6.23;;
9809;SDS011;4944;52.514;13.192;2023-12-14T02:52:46;7.97;;;7.17;;
9809;SDS011;4944;52.514;13.192;2023-12-14T02:55:13;8.43;;;7.00;;
9809;SDS011;4944;52.514;13.192;2023-12-14T02:57:41;9.97;;;6.90;;
9809;SDS011;4944;52.514;13.192;2023-12-14T03:00:10;8.97;;;7.13;;
9809;SDS011;4944;52.514;13.192;2023-12-14T03:02:38;8.13;;;6.70;;
9809;SDS011;4944;52.514;13.192;2023-12-14T03:05:05;8.97;;;6.73;;
9809;SDS011;4944;52.514;13.192;2023-12-14T03:07:32;7.77;;;6.83;;
9809;SDS011;4944;52.514;13.192;2023-12-14T03:09:59;8.27;;;7.47;;
9809;SDS011;4944;52.514;13.192;2023-12-14T03:12:26;7.77;;;6.83;;
9809;SDS011;4944;52.514;13.192;2023-12-14T03:14:54;7.70;;;6.97;;
9809;SDS011;4944;52.514;13.192;2023-12-14T03:17:21;9.77;;;7.53;;
9809;SDS011;4944;52.514;13.192;2023-12-14T03:19:48;8.07;;;7.00;;
9809;SDS011;4944;52.514;13.192;2023-12-14T03:22:14;8.13;;;7.30;;
9809;SDS011;4944;52.514;13.192;2023-12-14T03:24:41;7.63;;;6.93;;
9809;SDS011;4944;52.514;13.192;2023-12-14T03:27:08;9.50;;;7.37;;
9809;SDS011;4944;52.514;13.192;2023-12-14T03:29:35;7.20;;;6.50;;
9809;SDS011;4944;52.514;13.192;2023-12-14T03:32:04;9.57;;;7.47;;
9809;SDS011;4944;52.514;13.192;2023-12-14T03:34:31;7.50;;;6.60;;
9809;SDS011;4944;52.514;13.192;2023-12-14T03:36:58;7.47;;;6.83;;
9809;SDS011;4944;52.514;13.192;2023-12-14T03:39:24;7.87;;;7.07;;
9809;SDS011;4944;52.514;13.192;2023-12-14T03:41:51;7.73;;;6.80;;
9809;SDS011;4944;52.514;13.192;2023-12-14T03:44:18;7.73;;;6.50;;
9809;SDS011;4944;52.514;13.192;2023-12-14T03:46:45;7.90;;;7.10;;
9809;SDS011;4944;52.514;13.192;2023-12-14T03:49:14;7.80;;;6.53;;
9809;SDS011;4944;52.514;13.192;2023-12-14T03:51:40;7.93;;;7.03;;
9809;SDS011;4944;52.514;13.192;2023-12-14T03:54:07;7.80;;;7.03;;
9809;SDS011;4944;52.514;13.192;2023-12-14T03:56:34;8.70;;;7.00;;
9809;SDS011;4944;52.514;13.192;2023-12-14T03:59:01;7.30;;;6.60;;
9809;SDS011;4944;52.514;13.192;2023-12-14T04:01:28;6.73;;;6.13;;
9809;SDS011;4944;52.514;13.192;2023-12-14T04:03:55;7.33;;;6.17;;
9809;SDS011;4944;52.514;13.192;2023-12-14T04:06:23;6.10;;;5.60;;
9809;SDS011;4944;52.514;13.192;2023-12-14T04:08:50;6.40;;;5.80;;
9809;SDS011;4944;52.514;13.192;2023-12-14T04:11:17;6.50;;;5.90;;
9809;SDS011;4944;52.514;13.192;2023-12-14T04:13:43;6.27;;;5.67;;
9809;SDS011;4944;52.514;13.192;2023-12-14T04:16:10;6.20;;;5.60;;
9809;SDS011;4944;52.514;13.192;2023-12-14T04:18:37;10.43;;;5.93;;
9809;SDS011;4944;52.514;13.192;2023-12-14T04:21:05;6.30;;;5.67;;
9809;SDS011;4944;52.514;13.192;2023-12-14T04:23:34;7.27;;;6.03;;
9809;SDS011;4944;52.514;13.192;2023-12-14T04:26:01;6.57;;;5.97;;
9809;SDS011;4944;52.514;13.192;2023-12-14T04:28:28;6.07;;;5.47;;
9809;SDS011;4944;52.514;13.192;2023-12-14T04:30:55;6.67;;;6.00;;
9809;SDS011;4944;52.514;13.192;2023-12-14T04:33:21;5.97;;;5.37;;
9809;SDS011;4944;52.514;13.192;2023-12-14T04:35:48;6.53;;;5.90;;
9809;SDS011;4944;52.514;13.192;2023-12-14T04:38:15;6.53;;;6.03;;
9809;SDS011;4944;52.514;13.192;2023-12-14T04:40:43;6.80;;;6.20;;
9809;SDS011;4944;52.514;13.192;2023-12-14T04:43:10;6.90;;;6.30;;
9809;SDS011;4944;52.514;13.192;2023-12-14T04:45:37;9.40;;;6.53;;
9809;SDS011;4944;52.514;13.192;2023-12-14T04:48:04;6.90;;;6.30;;
9809;SDS011;4944;52.514;13.192;2023-12-14T04:50:31;6.73;;;6.00;;
9809;SDS011;4944;52.514;13.192;2023-12-14T04:52:58;7.63;;;6.83;;
9809;SDS011;4944;52.514;13.192;2023-12-14T04:55:25;6.93;;;6.10;;
9809;SDS011;4944;52.514;13.192;2023-12-14T04:57:53;7.70;;;6.87;;
9809;SDS011;4944;52.514;13.192;2023-12-14T05:00:20;7.63;;;6.93;;
9809;SDS011;4944;52.514;13.192;2023-12-14T05:02:48;6.87;;;6.27;;
9809;SDS011;4944;52.514;13.192;2023-12-14T05:05:14;10.80;;;6.50;;
9809;SDS011;4944;52.514;13.192;2023-12-14T05:07:41;7.70;;;6.50;;
9809;SDS011;4944;52.514;13.192;2023-12-14T05:10:08;7.70;;;6.90;;
9809;SDS011;4944;52.514;13.192;2023-12-14T05:12:36;10.53;;;6.97;;
9809;SDS011;4944;52.514;13.192;2023-12-14T05:15:05;8.30;;;6.67;;
9809;SDS011;4944;52.514;13.192;2023-12-14T05:17:33;8.97;;;6.90;;
9809;SDS011;4944;52.514;13.192;2023-12-14T05:20:01;8.07;;;7.23;;
9809;SDS011;4944;52.514;13.192;2023-12-14T05:22:29;7.90;;;7.10;;
9809;SDS011;4944;52.514;13.192;2023-12-14T05:24:56;7.83;;;6.90;;
9809;SDS011;4944;52.514;13.192;2023-12-14T05:27:23;8.47;;;6.97;;
9809;SDS011;4944;52.514;13.192;2023-12-14T05:29:50;7.57;;;6.87;;
9809;SDS011;4944;52.514;13.192;2023-12-14T05:32:18;8.03;;;6.77;;
9809;SDS011;4944;52.514;13.192;2023-12-14T05:34:45;7.40;;;6.70;;
9809;SDS011;4944;52.514;13.192;2023-12-14T05:37:12;7.20;;;6.50;;
9809;SDS011;4944;52.514;13.192;2023-12-14T05:39:40;6.67;;;6.07;;
9809;SDS011;4944;52.514;13.192;2023-12-14T05:42:08;6.67;;;6.07;;
9809;SDS011;4944;52.514;13.192;2023-12-14T05:44:35;6.80;;;6.10;;
9809;SDS011;4944;52.514;13.192;2023-12-14T05:47:01;6.40;;;5.80;;
9809;SDS011;4944;52.514;13.192;2023-12-14T05:49:30;6.70;;;5.93;;
9809;SDS011;4944;52.514;13.192;2023-12-14T05:51:58;6.53;;;5.93;;
9809;SDS011;4944;52.514;13.192;2023-12-14T05:54:25;7.13;;;6.33;;
9809;SDS011;4944;52.514;13.192;2023-12-14T05:56:52;6.77;;;6.07;;
9809;SDS011;4944;52.514;13.192;2023-12-14T05:59:19;6.37;;;5.87;;
9809;SDS011;4944;52.514;13.192;2023-12-14T06:01:46;7.23;;;6.53;;
9809;SDS011;4944;52.514;13.192;2023-12-14T06:04:13;6.97;;;6.37;;
9809;SDS011;4944;52.514;13.192;2023-12-14T06:06:41;6.53;;;5.97;;
9809;SDS011;4944;52.514;13.192;2023-12-14T06:09:08;6.50;;;5.90;;
9809;SDS011;4944;52.514;13.192;2023-12-14T06:11:35;6.50;;;5.90;;
9809;SDS011;4944;52.514;13.192;2023-12-14T06:14:02;6.20;;;5.63;;
9809;SDS011;4944;52.514;13.192;2023-12-14T06:16:29;7.47;;;5.73;;
9809;SDS011;4944;52.514;13.192;2023-12-14T06:18:56;7.37;;;6.07;;
9809;SDS011;4944;52.514;13.192;2023-12-14T06:21:23;6.40;;;5.80;;
9809;SDS011;4944;52.514;13.192;2023-12-14T06:23:54;6.53;;;5.93;;
9809;SDS011;4944;52.514;13.192;2023-12-14T06:26:21;6.47;;;5.43;;
9809;SDS011;4944;52.514;13.192;2023-12-14T06:28:48;6.30;;;5.80;;
9809;SDS011;4944;52.514;13.192;2023-12-14T06:31:15;6.83;;;6.10;;
9809;SDS011;4944;52.514;13.192;2023-12-14T06:33:43;7.37;;;6.67;;
9809;SDS011;4944;52.514;13.192;2023-12-14T06:36:10;7.37;;;6.17;;
9809;SDS011;4944;52.514;13.192;2023-12-14T06:38:37;6.20;;;5.60;;
9809;SDS011;4944;52.514;13.192;2023-12-14T06:41:06;5.70;;;5.30;;
9809;SDS011;4944;52.514;13.192;2023-12-14T06:43:34;6.40;;;5.70;;
9809;SDS011;4944;52.514;13.192;2023-12-14T06:46:00;6.93;;;5.27;;
9809;SDS011;4944;52.514;13.192;2023-12-14T06:48:27;5.97;;;5.50;;
9809;SDS011;4944;52.514;13.192;2023-12-14T06:50:54;5.87;;;5.37;;
9809;SDS011;4944;52.514;13.192;2023-12-14T06:53:21;5.43;;;5.03;;
9809;SDS011;4944;52.514;13.192;2023-12-14T06:55:48;5.50;;;5.00;;
9809;SDS011;4944;52.514;13.192;2023-12-14T06:58:16;5.57;;;5.07;;
9809;SDS011;4944;52.514;13.192;2023-12-14T07:00:44;5.73;;;5.27;;
9809;SDS011;4944;52.514;13.192;2023-12-14T07:03:10;5.63;;;5.13;;
9809;SDS011;4944;52.514;13.192;2023-12-14T07:05:38;5.43;;;5.03;;
9809;SDS011;4944;52.514;13.192;2023-12-14T07:08:05;8.60;;;5.70;;
9809;SDS011;4944;52.514;13.192;2023-12-14T07:10:32;5.40;;;5.00;;
9809;SDS011;4944;52.514;13.192;2023-12-14T07:12:59;5.63;;;5.20;;
9809;SDS011;4944;52.514;13.192;2023-12-14T07:15:27;5.67;;;5.07;;
9809;SDS011;4944;52.514;13.192;2023-12-14T07:17:54;5.50;;;5.10;;
9809;SDS011;4944;52.514;13.192;2023-12-14T07:20:21;6.23;;;5.73;;
9809;SDS011;4944;52.514;13.192;2023-12-14T07:22:47;5.63;;;5.13;;
9809;SDS011;4944;52.514;13.192;2023-12-14T07:25:14;5.47;;;4.97;;
9809;SDS011;4944;52.514;13.192;2023-12-14T07:27:41;5.83;;;5.30;;
9809;SDS011;4944;52.514;13.192;2023-12-14T07:30:09;5.90;;;5.40;;
9809;SDS011;4944;52.514;13.192;2023-12-14T07:32:38;6.97;;;5.07;;
9809;SDS011;4944;52.514;13.192;2023-12-14T07:35:05;5.33;;;4.93;;
9809;SDS011;4944;52.514;13.192;2023-12-14T07:37:33;5.50;;;5.10;;
9809;SDS011;4944;52.514;13.192;2023-12-14T07:40:00;6.13;;;5.63;;
9809;SDS011;4944;52.514;13.192;2023-12-14T07:42:28;5.83;;;5.33;;
9809;SDS011;4944;52.514;13.192;2023-12-14T07:44:55;6.47;;;5.97;;
9809;SDS011;4944;52.514;13.192;2023-12-14T07:47:22;6.53;;;5.93;;
9809;SDS011;4944;52.514;13.192;2023-12-14T07:49:50;6.13;;;5.60;;
9809;SDS011;4944;52.514;13.192;2023-12-14T07:52:17;6.73;;;6.03;;
9809;SDS011;4944;52.514;13.192;2023-12-14T07:54:44;6.87;;;6.27;;
9809;SDS011;4944;52.514;13.192;2023-12-14T07:57:11;7.43;;;6.83;;
9809;SDS011;4944;52.514;13.192;2023-12-14T07:59:37;6.97;;;6.37;;
9809;SDS011;4944;52.514;13.192;2023-12-14T08:02:04;7.40;;;6.80;;
9809;SDS011;4944;52.514;13.192;2023-12-14T08:04:32;7.00;;;6.40;;
9809;SDS011;4944;52.514;13.192;2023-12-14T08:07:00;7.83;;;6.90;;
9809;SDS011;4944;52.514;13.192;2023-12-14T08:09:27;8.00;;;7.30;;
9809;SDS011;4944;52.514;13.192;2023-12-14T08:11:54;7.53;;;6.73;;
9809;SDS011;4944;52.514;13.192;2023-12-14T08:14:21;8.70;;;7.80;;
9809;SDS011;4944;52.514;13.192;2023-12-14T08:16:48;8.30;;;7.50;;
9809;SDS011;4944;52.514;13.192;2023-12-14T08:19:15;8.67;;;7.87;;
9809;SDS011;4944;52.514;13.192;2023-12-14T08:21:42;8.23;;;7.37;;
9809;SDS011;4944;52.514;13.192;2023-12-14T08:24:10;9.37;;;8.30;;
9809;SDS011;4944;52.514;13.192;2023-12-14T08:26:37;9.23;;;7.37;;
9809;SDS011;4944;52.514;13.192;2023-12-14T08:29:04;8.40;;;7.60;;
9809;SDS011;4944;52.514;13.192;2023-12-14T08:31:31;13.27;;;8.83;;
9809;SDS011;4944;52.514;13.192;2023-12-14T08:33:58;11.33;;;8.97;;
9809;SDS011;4944;52.514;13.192;2023-12-14T08:36:25;9.40;;;7.87;;
9809;SDS011;4944;52.514;13.192;2023-12-14T08:38:52;10.73;;;8.63;;
9809;SDS011;4944;52.514;13.192;2023-12-14T08:41:20;9.37;;;7.80;;
9809;SDS011;4944;52.514;13.192;2023-12-14T08:43:47;10.90;;;8.90;;
9809;SDS011;4944;52.514;13.192;2023-12-14T08:46:14;9.30;;;8.33;;
9809;SDS011;4944;52.514;13.192;2023-12-14T08:48:41;9.10;;;8.20;;
9809;SDS011;4944;52.514;13.192;2023-12-14T08:51:08;8.80;;;8.00;;
9809;SDS011;4944;52.514;13.192;2023-12-14T08:53:35;9.07;;;8.17;;
9809;SDS011;4944;52.514;13.192;2023-12-14T08:56:02;9.87;;;8.30;;
9809;SDS011;4944;52.514;13.192;2023-12-14T08:58:31;10.03;;;8.93;;
9809;SDS011;4944;52.514;13.192;2023-12-14T09:00:58;10.13;;;8.43;;
9809;SDS011;4944;52.514;13.192;2023-12-14T09:03:25;9.70;;;8.80;;
9809;SDS011;4944;52.514;13.192;2023-12-14T09:05:52;9.87;;;8.40;;
9809;SDS011;4944;52.514;13.192;2023-12-14T09:08:19;9.67;;;8.63;;
9809;SDS011;4944;52.514;13.192;2023-12-14T09:10:46;9.13;;;8.23;;
9809;SDS011;4944;52.514;13.192;2023-12-14T09:13:13;9.47;;;8.40;;
9809;SDS011;4944;52.514;13.192;2023-12-14T09:15:41;11.23;;;8.97;;
9809;SDS011;4944;52.514;13.192;2023-12-14T09:18:08;9.13;;;8.17;;
9809;SDS011;4944;52.514;13.192;2023-12-14T09:20:35;10.77;;;8.10;;
9809;SDS011;4944;52.514;13.192;2023-12-14T09:23:05;10.10;;;8.73;;
9809;SDS011;4944;52.514;13.192;2023-12-14T09:25:32;9.13;;;8.23;;
9809;SDS011;4944;52.514;13.192;2023-12-14T09:27:59;9.83;;;8.83;;
9809;SDS011;4944;52.514;13.192;2023-12-14T09:30:26;10.73;;;9.47;;
9809;SDS011;4944;52.514;13.192;2023-12-14T09:32:54;9.47;;;8.43;;
9809;SDS011;4944;52.514;13.192;2023-12-14T09:35:21;10.30;;;8.60;;
9809;SDS011;4944;52.514;13.192;2023-12-14T09:37:48;9.87;;;8.90;;
9809;SDS011;4944;52.514;13.192;2023-12-14T09:40:15;13.50;;;9.87;;
9809;SDS011;4944;52.514;13.192;2023-12-14T09:42:43;11.37;;;8.70;;
9809;SDS011;4944;52.514;13.192;2023-12-14T09:45:11;10.80;;;9.50;;
9809;SDS011;4944;52.514;13.192;2023-12-14T09:47:39;10.23;;;9.17;;
9809;SDS011;4944;52.514;13.192;2023-12-14T09:50:09;11.50;;;9.53;;
9809;SDS011;4944;52.514;13.192;2023-12-14T09:52:36;11.40;;;9.93;;
9809;SDS011;4944;52.514;13.192;2023-12-14T09:55:03;11.00;;;9.80;;
9809;SDS011;4944;52.514;13.192;2023-12-14T09:57:30;10.17;;;9.13;;
9809;SDS011;4944;52.514;13.192;2023-12-14T09:59:57;10.27;;;9.23;;
9809;SDS011;4944;52.514;13.192;2023-12-14T10:02:24;11.40;;;9.93;;
9809;SDS011;4944;52.514;13.192;2023-12-14T10:04:52;11.93;;;9.40;;
9809;SDS011;4944;52.514;13.192;2023-12-14T10:07:22;11.33;;;10.17;;
9809;SDS011;4944;52.514;13.192;2023-12-14T10:09:49;11.27;;;10.07;;
9809;SDS011;4944;52.514;13.192;2023-12-14T10:12:17;10.90;;;9.80;;
9809;SDS011;4944;52.514;13.192;2023-12-14T10:14:44;12.57;;;10.83;;
9809;SDS011;4944;52.514;13.192;2023-12-14T10:17:16;10.23;;;9.27;;
9809;SDS011;4944;52.514;13.192;2023-12-14T10:19:44;11.00;;;9.03;;
9809;SDS011;4944;52.514;13.192;2023-12-14T10:22:12;10.47;;;9.20;;
9809;SDS011;4944;52.514;13.192;2023-12-14T10:24:44;11.07;;;9.80;;
9809;SDS011;4944;52.514;13.192;2023-12-14T10:27:11;10.40;;;9.40;;
9809;SDS011;4944;52.514;13.192;2023-12-14T10:29:40;11.57;;;9.60;;
9809;SDS011;4944;52.514;13.192;2023-12-14T10:32:07;10.60;;;9.50;;
9809;SDS011;4944;52.514;13.192;2023-12-14T10:34:36;10.93;;;9.73;;
9809;SDS011;4944;52.514;13.192;2023-12-14T10:37:04;10.90;;;9.80;;
9809;SDS011;4944;52.514;13.192;2023-12-14T10:39:32;11.33;;;10.13;;
9809;SDS011;4944;52.514;13.192;2023-12-14T10:42:02;11.43;;;10.00;;
9809;SDS011;4944;52.514;13.192;2023-12-14T10:44:30;10.80;;;9.70;;
9809;SDS011;4944;52.514;13.192;2023-12-14T10:47:02;11.80;;;10.43;;
9809;SDS011;4944;52.514;13.192;2023-12-14T10:49:30;15.03;;;10.13;;
9809;SDS011;4944;52.514;13.192;2023-12-14T10:51:59;10.67;;;9.40;;
9809;SDS011;4944;52.514;13.192;2023-12-14T10:54:28;11.37;;;9.37;;
9809;SDS011;4944;52.514;13.192;2023-12-14T10:56:58;10.33;;;9.37;;
9809;SDS011;4944;52.514;13.192;2023-12-14T10:59:27;14.13;;;9.50;;
9809;SDS011;4944;52.514;13.192;2023-12-14T11:01:54;10.53;;;9.20;;
9809;SDS011;4944;52.514;13.192;2023-12-14T11:04:22;10.00;;;9.00;;
9809;SDS011;4944;52.514;13.192;2023-12-14T11:06:49;11.90;;;9.20;;
9809;SDS011;4944;52.514;13.192;2023-12-14T11:09:21;11.07;;;9.63;;
9809;SDS011;4944;52.514;13.192;2023-12-14T11:11:54;10.53;;;9.53;;
9809;SDS011;4944;52.514;13.192;2023-12-14T11:14:25;11.00;;;9.27;;
9809;SDS011;4944;52.514;13.192;2023-12-14T11:16:53;10.23;;;9.23;;
9809;SDS011;4944;52.514;13.192;2023-12-14T11:19:29;10.70;;;9.60;;
9809;SDS011;4944;52.514;13.192;2023-12-14T11:22:03;9.60;;;8.60;;
9809;SDS011;4944;52.514;13.192;2023-12-14T11:24:50;9.70;;;8.70;;
9809;SDS011;4944;52.514;13.192;2023-12-14T11:27:20;11.53;;;8.63;;
9809;SDS011;4944;52.514;13.192;2023-12-14T11:29:53;8.97;;;8.07;;
9809;SDS011;4944;52.514;13.192;2023-12-14T11:32:20;9.70;;;8.70;;
9809;SDS011;4944;52.514;13.192;2023-12-14T11:34:47;9.23;;;8.33;;
9809;SDS011;4944;52.514;13.192;2023-12-14T11:37:14;10.13;;;9.10;;
9809;SDS011;4944;52.514;13.192;2023-12-14T11:39:41;10.27;;;9.13;;
9809;SDS011;4944;52.514;13.192;2023-12-14T11:42:09;10.10;;;8.90;;
9809;SDS011;4944;52.514;13.192;2023-12-14T11:44:36;10.67;;;9.53;;
9809;SDS011;4944;52.514;13.192;2023-12-14T11:47:05;10.67;;;9.57;;
9809;SDS011;4944;52.514;13.192;2023-12-14T11:49:31;9.83;;;8.83;;
9809;SDS011;4944;52.514;13.192;2023-12-14T11:52:01;10.20;;;9.20;;
9809;SDS011;4944;52.514;13.192;2023-12-14T11:54:30;9.73;;;8.77;;
9809;SDS011;4944;52.514;13.192;2023-12-14T11:56:57;11.50;;;9.20;;
9809;SDS011;4944;52.514;13.192;2023-12-14T11:59:29;10.17;;;9.00;;
9809;SDS011;4944;52.514;13.192;2023-12-14T12:01:57;10.07;;;8.63;;
9809;SDS011;4944;52.514;13.192;2023-12-14T12:04:27;9.13;;;8.10;;
9809;SDS011;4944;52.514;13.192;2023-12-14T12:07:00;9.57;;;8.53;;
9809;SDS011;4944;52.514;13.192;2023-12-14T12:09:32;8.83;;;8.03;;
9809;SDS011;4944;52.514;13.192;2023-12-14T12:12:01;11.07;;;7.93;;
9809;SDS011;4944;52.514;13.192;2023-12-14T12:14:28;8.90;;;8.10;;
9809;SDS011;4944;52.514;13.192;2023-12-14T12:16:55;11.23;;;8.43;;
9809;SDS011;4944;52.514;13.192;2023-12-14T12:19:22;9.97;;;8.53;;
9809;SDS011;4944;52.514;13.192;2023-12-14T12:21:50;9.07;;;8.17;;
9809;SDS011;4944;52.514;13.192;2023-12-14T12:24:17;10.73;;;9.20;;
9809;SDS011;4944;52.514;13.192;2023-12-14T12:26:44;9.50;;;8.60;;
9809;SDS011;4944;52.514;13.192;2023-12-14T12:29:11;9.80;;;8.80;;
9809;SDS011;4944;52.514;13.192;2023-12-14T12:31:38;9.47;;;8.50;;
9809;SDS011;4944;52.514;13.192;2023-12-14T12:34:05;9.47;;;8.47;;
9809;SDS011;4944;52.514;13.192;2023-12-14T12:36:32;9.07;;;8.17;;
9809;SDS011;4944;52.514;13.192;2023-12-14T12:39:00;9.97;;;8.97;;
9809;SDS011;4944;52.514;13.192;2023-12-14T12:41:28;9.67;;;8.77;;
9809;SDS011;4944;52.514;13.192;2023-12-14T12:43:55;9.67;;;8.67;;
9809;SDS011;4944;52.514;13.192;2023-12-14T12:46:22;8.83;;;7.93;;
9809;SDS011;4944;52.514;13.192;2023-12-14T12:48:49;9.20;;;8.30;;
9809;SDS011;4944;52.514;13.192;2023-12-14T12:51:16;9.13;;;8.23;;
9809;SDS011;4944;52.514;13.192;2023-12-14T12:53:43;8.77;;;7.50;;
9809;SDS011;4944;52.514;13.192;2023-12-14T12:56:11;8.70;;;7.90;;
9809;SDS011;4944;52.514;13.192;2023-12-14T12:58:38;9.03;;;8.20;;
9809;SDS011;4944;52.514;13.192;2023-12-14T13:01:05;8.70;;;7.90;;
9809;SDS011;4944;52.514;13.192;2023-12-14T13:03:33;8.90;;;8.00;;
9809;SDS011;4944;52.514;13.192;2023-12-14T13:05:59;7.93;;;7.23;;
9809;SDS011;4944;52.514;13.192;2023-12-14T13:08:26;9.67;;;8.03;;
9809;SDS011;4944;52.514;13.192;2023-12-14T13:10:53;8.67;;;7.83;;
9809;SDS011;4944;52.514;13.192;2023-12-14T13:13:21;9.93;;;7.87;;
9809;SDS011;4944;52.514;13.192;2023-12-14T13:15:48;8.30;;;7.53;;
9809;SDS011;4944;52.514;13.192;2023-12-14T13:18:15;8.57;;;7.73;;
9809;SDS011;4944;52.514;13.192;2023-12-14T13:20:42;9.13;;;7.87;;
9809;SDS011;4944;52.514;13.192;2023-12-14T13:23:09;9.43;;;7.97;;
9809;SDS011;4944;52.514;13.192;2023-12-14T13:25:36;9.23;;;8.27;;
9809;SDS011;4944;52.514;13.192;2023-12-14T13:28:03;9.83;;;8.60;;
9809;SDS011;4944;52.514;13.192;2023-12-14T13:30:32;10.53;;;8.37;;
9809;SDS011;4944;52.514;13.192;2023-12-14T13:32:59;10.07;;;8.13;;
9809;SDS011;4944;52.514;13.192;2023-12-14T13:35:25;9.27;;;8.23;;
9809;SDS011;4944;52.514;13.192;2023-12-14T13:37:53;9.43;;;8.60;;
9809;SDS011;4944;52.514;13.192;2023-12-14T13:40:20;9.00;;;8.13;;
9809;SDS011;4944;52.514;13.192;2023-12-14T13:42:47;8.60;;;7.80;;
9809;SDS011;4944;52.514;13.192;2023-12-14T13:45:14;10.07;;;8.70;;
9809;SDS011;4944;52.514;13.192;2023-12-14T13:47:43;9.40;;;8.30;;
9809;SDS011;4944;52.514;13.192;2023-12-14T13:50:09;9.17;;;8.23;;
9809;SDS011;4944;52.514;13.192;2023-12-14T13:52:36;9.17;;;8.30;;
9809;SDS011;4944;52.514;13.192;2023-12-14T13:55:04;9.37;;;8.33;;
9809;SDS011;4944;52.514;13.192;2023-12-14T13:57:31;9.90;;;8.70;;
9809;SDS011;4944;52.514;13.192;2023-12-14T13:59:58;10.63;;;8.30;;
9809;SDS011;4944;52.514;13.192;2023-12-14T14:02:25;8.73;;;7.93;;
9809;SDS011;4944;52.514;13.192;2023-12-14T14:04:55;8.63;;;7.73;;
9809;SDS011;4944;52.514;13.192;2023-12-14T14:07:22;8.20;;;7.40;;
9809;SDS011;4944;52.514;13.192;2023-12-14T14:09:48;8.43;;;7.70;;
9809;SDS011;4944;52.514;13.192;2023-12-14T14:12:15;8.97;;;8.13;;
9809;SDS011;4944;52.514;13.192;2023-12-14T14:14:42;8.03;;;7.03;;
9809;SDS011;4944;52.514;13.192;2023-12-14T14:17:09;8.53;;;7.73;;
9809;SDS011;4944;52.514;13.192;2023-12-14T14:19:37;8.13;;;7.33;;
9809;SDS011;4944;52.514;13.192;2023-12-14T14:22:05;8.50;;;7.43;;
9809;SDS011;4944;52.514;13.192;2023-12-14T14:24:32;8.77;;;7.87;;
9809;SDS011;4944;52.514;13.192;2023-12-14T14:26:59;7.80;;;7.10;;
9809;SDS011;4944;52.514;13.192;2023-12-14T14:29:26;9.47;;;7.93;;
9809;SDS011;4944;52.514;13.192;2023-12-14T14:31:53;8.17;;;7.30;;
9809;SDS011;4944;52.514;13.192;2023-12-14T14:34:20;8.90;;;7.07;;
9809;SDS011;4944;52.514;13.192;2023-12-14T14:36:47;8.50;;;7.57;;
9809;SDS011;4944;52.514;13.192;2023-12-14T14:39:15;8.03;;;7.23;;
9809;SDS011;4944;52.514;13.192;2023-12-14T14:41:43;8.27;;;7.47;;
9809;SDS011;4944;52.514;13.192;2023-12-14T14:44:11;8.57;;;7.77;;
9809;SDS011;4944;52.514;13.192;2023-12-14T14:46:38;8.27;;;7.47;;
9809;SDS011;4944;52.514;13.192;2023-12-14T14:49:05;7.53;;;6.77;;
9809;SDS011;4944;52.514;13.192;2023-12-14T14:51:32;8.47;;;7.13;;
9809;SDS011;4944;52.514;13.192;2023-12-14T14:53:58;10.00;;;7.50;;
9809;SDS011;4944;52.514;13.192;2023-12-14T14:56:27;8.73;;;7.93;;
9809;SDS011;4944;52.514;13.192;2023-12-14T14:58:54;8.30;;;7.50;;